Westmount, Canada
Current Conditions -  °F | °C
As of 7:00 PM on Monday 22 Dec 2014 (Local Time) from CYUL Reporting Station
Overcast Overcast  
Wind Chill:   Ceiling: 4000
Heat Index: 19°   Visibility: 10mi
Dew Point: 16°   Wind: 12mph
Humidity: 86%   Direction: 30°NNE
Pressure: 30.33"   Gusts: NA
Location:  45.48°N, 73.6°W
Report Text: CYUL 230000Z 03010KT 10SM FEW010 OVC040 M07/M09 A3033 RMK SF1SC8 SF TR SLP273
Loading
Personal Weather Stations






























Interactive Weather Map New forecast layout! Learn more

10-Day Weather Forecast

Advertisements
Track Severe Weather on mobile